Time;durP1;ratioP1;P1;durP2;ratioP2;P2;SDS_P1;SDS_P2;PMS_P1;PMS_P2;Temp;Humidity;BMP_temperature;BMP_pressure;BME280_temperature;BME280_humidity;BME280_pressure;Samples;Min_cycle;Max_cycle;Signal;HPM_P1;HPM_P2
2022/05/31 00:00:27;;;;;;;18.23;12.70;;;;;;;12.86;100.00;100116.25;1795399;79;21007;-69
2022/05/31 00:02:55;;;;;;;19.02;12.28;;;;;;;12.83;100.00;100116.41;1795342;79;21039;-69
2022/05/31 00:05:22;;;;;;;15.00;10.68;;;;;;;12.79;100.00;100128.45;1795103;79;21073;-70
2022/05/31 00:07:49;;;;;;;16.80;12.20;;;;;;;12.74;100.00;100119.00;1725889;83;21117;-70
2022/05/31 00:10:17;;;;;;;17.17;11.80;;;;;;;12.71;100.00;100121.33;1729347;82;21096;-70
2022/05/31 00:12:44;;;;;;;15.93;11.25;;;;;;;12.68;100.00;100124.12;1694600;83;21525;-70
2022/05/31 00:15:14;;;;;;;15.23;11.53;;;;;;;12.66;100.00;100132.58;1690857;84;21126;-69
2022/05/31 00:17:41;;;;;;;11.95;10.53;;;;;;;12.61;100.00;100135.89;1717502;83;21105;-69
2022/05/31 00:20:10;;;;;;;13.70;10.68;;;;;;;12.61;100.00;100143.82;1768698;81;21006;-70
2022/05/31 00:22:37;;;;;;;15.13;11.05;;;;;;;12.58;100.00;100139.97;1768604;81;21137;-69
2022/05/31 00:25:05;;;;;;;15.93;11.22;;;;;;;12.51;100.00;100125.33;1768668;81;21081;-70
2022/05/31 00:27:31;;;;;;;14.43;10.18;;;;;;;12.46;100.00;100126.01;1768518;81;21066;-69
2022/05/31 00:29:58;;;;;;;16.82;10.35;;;;;;;12.41;100.00;100120.08;1768660;81;21127;-71
2022/05/31 00:32:30;;;;;;;14.60;9.75;;;;;;;12.34;100.00;100121.67;1768669;81;21097;-70
2022/05/31 00:35:01;;;;;;;11.30;9.13;;;;;;;12.29;100.00;100132.91;1768491;81;21638;-68
2022/05/31 00:37:28;;;;;;;12.47;10.68;;;;;;;12.24;100.00;100137.97;1768561;81;21061;-70
2022/05/31 00:39:55;;;;;;;15.45;11.08;;;;;;;12.21;100.00;100146.04;1768657;81;21042;-69
2022/05/31 00:42:22;;;;;;;19.17;10.80;;;;;;;12.18;100.00;100136.47;1768913;81;21041;-70
2022/05/31 00:44:49;;;;;;;17.12;12.58;;;;;;;12.14;100.00;100134.88;1768528;81;21104;-70
2022/05/31 00:47:27;;;;;;;12.88;10.28;;;;;;;12.12;100.00;100136.73;1768580;81;21965;-70
2022/05/31 00:50:11;;;;;;;12.35;10.25;;;;;;;12.06;100.00;100130.41;1768508;81;20975;-69
2022/05/31 00:52:47;;;;;;;10.43;8.60;;;;;;;12.03;100.00;100126.56;1768625;81;21558;-70
2022/05/31 00:55:21;;;;;;;20.80;11.55;;;;;;;12.03;100.00;100134.48;1741887;81;21030;-69
2022/05/31 00:58:11;;;;;;;14.70;11.18;;;;;;;12.00;100.00;100131.98;1768649;81;21022;-70
2022/05/31 01:00:38;;;;;;;16.23;11.40;;;;;;;12.02;100.00;100131.46;1767883;81;21131;-71
2022/05/31 01:03:05;;;;;;;18.90;11.73;;;;;;;12.03;100.00;100126.56;1768325;81;21046;-70
2022/05/31 01:05:32;;;;;;;19.15;11.57;;;;;;;11.94;100.00;100110.22;1768605;81;21010;-70
2022/05/31 01:07:58;;;;;;;12.90;10.68;;;;;;;12.01;100.00;100123.13;1766230;81;21338;-69
2022/05/31 01:10:26;;;;;;;17.32;11.60;;;;;;;12.00;100.00;100129.34;1743278;81;21626;-69
2022/05/31 01:12:57;;;;;;;15.00;10.75;;;;;;;11.99;100.00;100138.20;1710456;82;21129;-71
2022/05/31 01:15:45;;;;;;;18.42;11.08;;;;;;;11.99;100.00;100143.48;1711722;82;21059;-70
2022/05/31 01:18:31;;;;;;;14.40;10.93;;;;;;;12.07;100.00;100142.67;1711935;83;21521;-70
2022/05/31 01:21:02;;;;;;;16.32;10.43;;;;;;;12.09;100.00;100144.79;1709045;83;21059;-70
2022/05/31 01:23:42;;;;;;;15.20;10.65;;;;;;;12.05;100.00;100140.56;1711321;83;21036;-70
2022/05/31 01:29:27;;;;;;;16.20;11.43;;;;;;;11.98;100.00;100137.79;1711687;83;21011;-71
2022/05/31 01:32:00;;;;;;;18.98;10.98;;;;;;;11.93;100.00;100135.34;1711800;82;21107;-70
2022/05/31 01:34:41;;;;;;;14.63;11.43;;;;;;;11.90;100.00;100135.02;1711821;83;21080;-70
2022/05/31 01:37:10;;;;;;;13.08;11.10;;;;;;;11.89;100.00;100135.95;1711964;82;21599;-70
2022/05/31 01:39:41;;;;;;;14.33;11.08;;;;;;;11.85;100.00;100140.92;1711979;83;21327;-69
2022/05/31 01:42:33;;;;;;;15.48;11.30;;;;;;;11.80;100.00;100144.22;1711837;83;21020;-71
2022/05/31 01:45:13;;;;;;;13.48;10.78;;;;;;;11.81;100.00;100160.44;1712142;83;21084;-70
2022/05/31 01:47:40;;;;;;;17.20;10.85;;;;;;;11.79;100.00;100160.95;1712116;82;21047;-71
2022/05/31 01:50:11;;;;;;;16.97;12.30;;;;;;;11.80;100.00;100161.38;1712046;82;21055;-71
2022/05/31 01:52:38;;;;;;;21.50;13.00;;;;;;;11.84;100.00;100161.63;1712295;83;21505;-69
2022/05/31 01:55:06;;;;;;;17.20;12.78;;;;;;;11.87;100.00;100158.91;1711744;83;21071;-71
2022/05/31 01:57:33;;;;;;;19.45;13.45;;;;;;;11.93;100.00;100165.70;1711893;83;21051;-70
2022/05/31 02:00:06;;;;;;;18.90;11.80;;;;;;;11.97;100.00;100162.02;1711784;82;21059;-69
2022/05/31 02:02:35;;;;;;;18.70;12.35;;;;;;;12.02;100.00;100167.09;1711446;83;21048;-70
2022/05/31 02:05:04;;;;;;;14.25;12.53;;;;;;;12.05;100.00;100164.31;1711892;82;21111;-70
2022/05/31 02:07:31;;;;;;;17.77;12.50;;;;;;;12.05;100.00;100161.67;1711965;82;21028;-70
2022/05/31 02:09:57;;;;;;;15.45;12.40;;;;;;;12.13;100.00;100171.45;1711968;83;21052;-70
2022/05/31 02:12:28;;;;;;;16.15;11.88;;;;;;;12.21;100.00;100175.08;1775800;80;21475;-70
2022/05/31 02:15:13;;;;;;;13.55;12.07;;;;;;;12.27;100.00;100169.08;1724115;83;21109;-70
2022/05/31 02:17:43;;;;;;;16.15;12.68;;;;;;;12.33;100.00;100175.42;1722575;82;21811;-71
2022/05/31 02:20:23;;;;;;;20.65;12.37;;;;;;;12.37;100.00;100169.05;1722134;82;20987;-69
2022/05/31 02:22:50;;;;;;;18.85;13.25;;;;;;;12.45;100.00;100175.81;1723886;82;21042;-71
2022/05/31 02:25:17;;;;;;;18.87;12.03;;;;;;;12.51;100.00;100184.30;1723893;83;21046;-70
2022/05/31 02:27:45;;;;;;;21.27;13.95;;;;;;;12.56;100.00;100177.05;1723969;83;21550;-70
2022/05/31 02:30:13;;;;;;;18.50;13.78;;;;;;;12.64;100.00;100169.23;1723890;82;21203;-71
2022/05/31 02:32:40;;;;;;;20.32;13.98;;;;;;;12.69;100.00;100166.77;1723817;82;21058;-69
2022/05/31 02:35:11;;;;;;;16.27;12.68;;;;;;;12.75;100.00;100177.08;1723923;82;21030;-70
2022/05/31 02:37:39;;;;;;;19.95;12.65;;;;;;;12.88;100.00;100177.36;1723997;82;21138;-70
2022/05/31 02:40:06;;;;;;;14.95;11.10;;;;;;;12.96;100.00;100171.73;1705257;83;21008;-70
2022/05/31 02:42:36;;;;;;;10.72;8.88;;;;;;;13.02;100.00;100175.40;1723661;83;21137;-70
2022/05/31 02:45:06;;;;;;;17.77;12.68;;;;;;;13.07;100.00;100164.17;1773896;80;21046;-70
2022/05/31 02:47:34;;;;;;;17.00;11.93;;;;;;;13.10;100.00;100169.30;1794190;80;21569;-70
2022/05/31 02:50:00;;;;;;;16.85;12.75;;;;;;;13.17;100.00;100170.73;1723671;83;21386;-71
2022/05/31 02:52:27;;;;;;;13.13;11.63;;;;;;;13.22;100.00;100171.36;1724231;83;21032;-70
2022/05/31 02:54:54;;;;;;;20.10;13.00;;;;;;;13.21;100.00;100161.73;1705232;83;21294;-71
2022/05/31 02:57:20;;;;;;;15.83;13.18;;;;;;;13.26;100.00;100155.37;1794396;80;21034;-70
2022/05/31 02:59:56;;;;;;;17.70;12.37;;;;;;;13.33;100.00;100159.47;1752828;79;21097;-70
2022/05/31 03:02:40;;;;;;;18.50;13.05;;;;;;;13.39;100.00;100156.53;1724060;82;21050;-70
2022/05/31 03:05:26;;;;;;;19.50;13.38;;;;;;;13.45;100.00;100161.98;1794704;80;21053;-71
2022/05/31 03:07:55;;;;;;;21.60;13.95;;;;;;;13.53;100.00;100154.07;1770825;79;21174;-72
2022/05/31 03:10:23;;;;;;;19.23;13.78;;;;;;;13.66;100.00;100156.10;1799743;79;21569;-69
2022/05/31 03:12:50;;;;;;;18.12;14.20;;;;;;;13.80;100.00;100154.94;1729229;83;21058;-70
2022/05/31 03:15:18;;;;;;;17.52;13.78;;;;;;;13.98;100.00;100157.14;1729228;83;21614;-72
2022/05/31 03:17:58;;;;;;;16.60;11.15;;;;;;;14.15;100.00;100162.89;1729497;82;21141;-69
2022/05/31 03:22:51;;;;;;;18.73;13.75;;;;;;;14.52;100.00;100172.93;1814353;79;22557;-70
2022/05/31 03:25:24;;;;;;;18.82;14.65;;;;;;;14.65;100.00;100170.02;1787548;80;21029;-70
2022/05/31 03:27:51;;;;;;;19.45;14.63;;;;;;;14.89;100.00;100167.39;1787792;80;21118;-70
2022/05/31 03:30:18;;;;;;;20.48;14.70;;;;;;;15.15;100.00;100169.08;1757092;80;21023;-70
2022/05/31 03:32:45;;;;;;;27.05;15.05;;;;;;;15.40;100.00;100177.00;1787471;80;20973;-70
2022/05/31 03:35:12;;;;;;;22.98;14.75;;;;;;;15.60;100.00;100182.05;1787612;80;21061;-70
2022/05/31 03:37:40;;;;;;;20.02;13.45;;;;;;;15.78;100.00;100179.29;1787564;80;21045;-70
2022/05/31 03:40:55;;;;;;;20.12;13.25;;;;;;;15.91;100.00;100185.61;1780219;80;21914;-69
2022/05/31 03:42:41;;;;;;;18.17;12.40;;;;;;;16.04;100.00;100186.61;1754361;81;21000;-70
2022/05/31 03:45:09;;;;;;;19.12;13.80;;;;;;;16.11;100.00;100185.30;1759018;81;21572;-70
2022/05/31 03:47:41;;;;;;;17.12;12.60;;;;;;;16.18;100.00;100194.24;1754052;81;21096;-71
2022/05/31 03:50:26;;;;;;;17.67;12.07;;;;;;;16.22;100.00;100191.31;1758730;81;21025;-70
2022/05/31 03:52:53;;;;;;;19.23;12.65;;;;;;;16.35;100.00;100190.94;1758649;81;21229;-70
2022/05/31 03:55:21;;;;;;;17.98;12.53;;;;;;;16.41;100.00;100195.52;1758463;81;21399;-70
2022/05/31 03:57:51;;;;;;;24.87;12.98;;;;;;;16.42;100.00;100191.42;1758509;79;21002;-69
2022/05/31 04:00:36;;;;;;;21.62;13.75;;;;;;;16.43;100.00;100194.96;1758568;81;21155;-71
2022/05/31 04:03:10;;;;;;;19.67;13.03;;;;;;;16.44;100.00;100191.34;1752480;81;21024;-70
2022/05/31 04:05:36;;;;;;;16.40;12.13;;;;;;;16.47;100.00;100194.69;1758964;81;21150;-72
2022/05/31 04:08:08;;;;;;;17.67;12.50;;;;;;;16.48;100.00;100198.19;1758688;81;21135;-70
2022/05/31 04:10:36;;;;;;;;;;;;;;;16.45;100.00;100195.25;1761438;81;21021;-71
2022/05/31 04:13:04;;;;;;;17.60;12.05;;;;;;;16.47;100.00;100197.34;1758705;81;20174;-70
2022/05/31 04:15:50;;;;;;;18.05;11.85;;;;;;;16.49;100.00;100198.56;1758710;81;21106;-69
2022/05/31 04:18:17;;;;;;;16.15;11.40;;;;;;;16.48;100.00;100205.69;1758658;81;21142;-69
2022/05/31 04:20:45;;;;;;;12.18;8.28;;;;;;;16.53;100.00;100204.92;1757749;80;21096;-70
2022/05/31 04:26:17;;;;;;;13.20;10.35;;;;;;;16.62;100.00;100203.52;1748148;82;21022;-69
2022/05/31 04:29:01;;;;;;;11.43;8.80;;;;;;;16.73;100.00;100210.84;1748325;82;21049;-70
2022/05/31 04:31:48;;;;;;;11.25;9.23;;;;;;;16.81;100.00;100216.56;1748109;82;21739;-70
2022/05/31 04:34:29;;;;;;;12.23;9.43;;;;;;;16.86;100.00;100221.60;1746160;82;21490;-70
2022/05/31 04:36:57;;;;;;;11.50;9.03;;;;;;;16.91;100.00;100212.41;1747756;82;21545;-70
2022/05/31 04:39:26;;;;;;;11.97;9.15;;;;;;;16.91;100.00;100216.84;1747081;82;21521;-71
2022/05/31 04:41:55;;;;;;;10.98;8.28;;;;;;;16.89;100.00;100214.78;1747572;82;21116;-70
2022/05/31 04:44:23;;;;;;;12.53;9.38;;;;;;;16.89;100.00;100229.41;1747805;82;21097;-70
2022/05/31 04:46:51;;;;;;;12.45;8.90;;;;;;;16.90;100.00;100226.64;1747442;81;21093;-70
2022/05/31 04:49:22;;;;;;;;;;;;;;;16.91;100.00;100224.83;1745252;82;21041;-69
2022/05/31 04:51:48;;;;;;;12.58;9.45;;;;;;;16.92;100.00;100232.72;1747617;82;20186;-70
2022/05/31 04:54:17;;;;;;;12.88;8.73;;;;;;;16.96;100.00;100236.91;1747555;82;21051;-70
2022/05/31 04:57:04;;;;;;;13.53;9.73;;;;;;;17.03;100.00;100237.88;1747690;82;21236;-69
2022/05/31 04:59:31;;;;;;;11.93;8.85;;;;;;;17.06;100.00;100239.00;1747919;82;21124;-70
2022/05/31 05:01:58;;;;;;;12.00;9.00;;;;;;;17.05;100.00;100247.95;1747419;82;21045;-71
2022/05/31 05:04:35;;;;;;;15.15;9.03;;;;;;;17.01;100.00;100251.73;1746755;82;21084;-70
2022/05/31 05:07:03;;;;;;;10.88;9.40;;;;;;;16.98;100.00;100252.30;1747825;82;21116;-70
2022/05/31 05:09:30;;;;;;;13.18;10.03;;;;;;;16.97;100.00;100250.58;1747714;82;21817;-71
2022/05/31 05:12:07;;;;;;;12.95;8.85;;;;;;;16.96;100.00;100253.36;1703881;82;21467;-70
2022/05/31 05:14:36;;;;;;;14.55;9.95;;;;;;;16.93;100.00;100251.74;1747627;82;21005;-71
2022/05/31 05:17:05;;;;;;;12.73;9.08;;;;;;;16.93;100.00;100249.08;1745851;82;21074;-71
2022/05/31 05:19:33;;;;;;;14.40;8.95;;;;;;;16.96;100.00;100251.54;1747494;82;21045;-70
2022/05/31 05:22:00;;;;;;;10.88;9.35;;;;;;;16.97;100.00;100257.70;1754289;81;21196;-69
2022/05/31 05:24:27;;;;;;;10.63;9.50;;;;;;;16.93;100.00;100267.70;1763349;81;21093;-70
2022/05/31 05:27:02;;;;;;;11.00;9.28;;;;;;;16.92;100.00;100267.30;1758302;81;21503;-70
2022/05/31 05:32:19;;;;;;;15.20;9.30;;;;;;;16.94;100.00;100268.07;1763801;81;21050;-71
2022/05/31 05:35:06;;;;;;;11.12;9.10;;;;;;;16.92;100.00;100274.44;1763624;81;21235;-70
2022/05/31 05:37:33;;;;;;;9.85;8.35;;;;;;;16.88;100.00;100271.58;1735734;81;21054;-71
2022/05/31 05:40:00;;;;;;;14.53;9.83;;;;;;;16.85;100.00;100277.94;1763395;81;21578;-70
2022/05/31 05:42:29;;;;;;;10.72;8.50;;;;;;;16.83;100.00;100285.16;1762268;81;21051;-69
2022/05/31 05:45:07;;;;;;;12.65;8.80;;;;;;;16.81;100.00;100284.38;1763100;81;21023;-71
2022/05/31 05:47:34;;;;;;;11.22;9.98;;;;;;;16.81;100.00;100284.38;1763410;81;21615;-69
2022/05/31 05:50:01;;;;;;;17.17;12.65;;;;;;;16.81;100.00;100288.37;1735295;81;21064;-70
2022/05/31 05:52:50;;;;;;;16.25;12.90;;;;;;;16.78;100.00;100291.20;1763296;81;21105;-69
2022/05/31 05:55:31;;;;;;;14.85;11.95;;;;;;;16.77;100.00;100298.33;1701461;81;21089;-72
2022/05/31 05:58:17;;;;;;;13.50;11.75;;;;;;;16.75;100.00;100292.72;1763439;81;21101;-69
2022/05/31 06:01:03;;;;;;;15.40;12.98;;;;;;;16.73;100.00;100297.27;1763291;81;21194;-70
2022/05/31 06:04:02;;;;;;;17.32;13.00;;;;;;;16.68;100.00;100290.02;1763341;81;21050;-70
2022/05/31 06:06:31;;;;;;;17.40;12.47;;;;;;;16.66;100.00;100286.62;1762843;81;21494;-69
2022/05/31 06:09:07;;;;;;;16.10;12.93;;;;;;;16.62;100.00;100283.77;1763732;81;21018;-71
2022/05/31 06:11:41;;;;;;;16.57;13.13;;;;;;;16.65;100.00;100273.78;1742616;81;21597;-69
2022/05/31 06:14:34;;;;;;;16.40;13.38;;;;;;;16.70;100.00;100266.86;1712472;83;21181;-71
2022/05/31 06:17:09;;;;;;;19.95;12.78;;;;;;;16.77;100.00;100269.08;1712431;83;21072;-69
2022/05/31 06:19:37;;;;;;;13.53;12.07;;;;;;;16.88;100.00;100274.23;1641194;86;21087;-71
2022/05/31 06:22:04;;;;;;;19.62;12.73;;;;;;;16.96;100.00;100275.48;1665092;85;21063;-71
2022/05/31 06:24:34;;;;;;;14.25;11.45;;;;;;;17.08;100.00;100283.19;1657797;86;21174;-71
2022/05/31 06:27:03;;;;;;;16.12;12.23;;;;;;;17.17;100.00;100284.42;1655878;86;21172;-71
2022/05/31 06:29:30;;;;;;;13.70;11.03;;;;;;;17.22;100.00;100297.45;1664094;85;21115;-71
2022/05/31 06:31:57;;;;;;;14.13;11.75;;;;;;;17.24;100.00;100295.06;1687745;84;21063;-71
2022/05/31 06:34:25;;;;;;;14.98;11.73;;;;;;;17.25;100.00;100301.23;1686779;85;21032;-70
2022/05/31 06:37:05;;;;;;;18.40;12.10;;;;;;;17.27;100.00;100312.16;1647076;85;21171;-71
2022/05/31 06:39:36;;;;;;;15.58;12.37;;;;;;;17.29;100.00;100318.25;1742808;82;21794;-70
2022/05/31 06:42:05;;;;;;;19.12;12.63;;;;;;;17.31;100.00;100315.02;1742905;82;21026;-70
2022/05/31 06:44:35;;;;;;;14.95;12.75;;;;;;;17.31;100.00;100316.36;1738955;82;21020;-70
2022/05/31 06:47:20;;;;;;;14.75;12.90;;;;;;;17.32;100.00;100315.42;1743067;82;21050;-69
2022/05/31 06:50:06;;;;;;;19.12;13.62;;;;;;;17.33;100.00;100316.27;1743130;82;21128;-71
2022/05/31 06:58:24;;;;;;;14.65;12.37;;;;;;;17.35;100.00;100339.66;1706692;82;21093;-70
2022/05/31 07:00:55;;;;;;;15.43;12.15;;;;;;;17.34;100.00;100345.44;1743085;82;21066;-70
2022/05/31 07:03:23;;;;;;;14.93;11.43;;;;;;;17.33;100.00;100346.40;1743335;82;21050;-70
2022/05/31 07:05:56;;;;;;;18.90;12.15;;;;;;;17.34;100.00;100346.77;1743172;82;21245;-70
2022/05/31 07:08:24;;;;;;;16.32;11.83;;;;;;;17.34;100.00;100348.09;1743164;82;21046;-71
2022/05/31 07:11:00;;;;;;;17.23;10.75;;;;;;;17.34;100.00;100350.77;1743226;82;21093;-71
2022/05/31 07:13:35;;;;;;;11.22;10.00;;;;;;;17.35;100.00;100359.14;1697681;82;21053;-71
2022/05/31 07:16:06;;;;;;;;;;;;;;;17.35;100.00;100359.14;1702200;82;21020;-71
2022/05/31 07:18:46;;;;;;;15.40;11.70;;;;;;;17.36;100.00;100356.84;1743218;82;21519;-71
2022/05/31 07:21:13;;;;;;;15.38;11.48;;;;;;;17.39;100.00;100363.34;1743104;82;21054;-71
2022/05/31 08:08:51;;;;;;;13.60;7.22;;;;;;;17.75;100.00;100424.56;1760808;81;21298;-71
2022/05/31 08:11:24;;;;;;;7.42;6.65;;;;;;;17.72;100.00;100419.44;1761399;81;21096;-70
2022/05/31 08:13:51;;;;;;;10.38;7.05;;;;;;;17.67;99.63;100408.22;1761347;81;21047;-70
2022/05/31 08:16:19;;;;;;;10.30;7.22;;;;;;;17.70;99.91;100406.69;1761443;81;21023;-70
2022/05/31 08:18:45;;;;;;;8.50;6.42;;;;;;;17.76;100.00;100406.32;1761226;81;21042;-71
2022/05/31 08:21:15;;;;;;;13.68;7.03;;;;;;;17.84;100.00;100403.20;1761074;81;21550;-70
2022/05/31 08:23:41;;;;;;;10.10;6.33;;;;;;;17.97;99.57;100404.62;1749546;81;21057;-71
2022/05/31 08:26:08;;;;;;;7.00;6.08;;;;;;;18.15;97.93;100399.45;1744925;82;21070;-71
2022/05/31 08:28:34;;;;;;;9.63;6.40;;;;;;;18.35;96.40;100410.62;1744673;82;21053;-71
2022/05/31 08:31:05;;;;;;;8.55;5.90;;;;;;;18.49;93.77;100413.72;1744743;82;21061;-70
2022/05/31 08:33:33;;;;;;;9.28;6.12;;;;;;;18.54;93.32;100413.81;1745242;82;21783;-70
2022/05/31 08:36:04;;;;;;;11.85;6.42;;;;;;;18.58;92.29;100419.30;1744931;82;21089;-71
2022/05/31 08:38:28;;;;;;;9.03;6.15;;;;;;;18.57;92.48;100408.27;1743826;82;21019;-69
2022/05/31 08:41:33;;;;;;;8.23;6.90;;;;;;;18.56;92.68;100401.20;1744813;82;21046;-69
2022/05/31 08:44:13;;;;;;;7.97;6.65;;;;;;;18.50;93.28;100411.45;1744710;82;21041;-70
2022/05/31 08:47:01;;;;;;;9.73;6.42;;;;;;;18.34;93.83;100416.92;1744812;82;21263;-70
2022/05/31 08:52:55;;;;;;;7.90;6.00;;;;;;;18.19;93.41;100423.59;1743358;82;21065;-70
2022/05/31 08:58:34;;;;;;;8.33;5.97;;;;;;;18.06;93.84;100440.46;1744777;82;21624;-70
2022/05/31 09:01:01;;;;;;;15.48;6.00;;;;;;;18.01;94.15;100446.08;1744831;82;21703;-70
2022/05/31 09:03:46;;;;;;;8.80;6.28;;;;;;;17.96;93.22;100454.85;1744863;82;20986;-69
2022/05/31 09:06:16;;;;;;;10.03;5.85;;;;;;;17.90;92.57;100460.55;1745156;82;21105;-71
2022/05/31 09:09:04;;;;;;;7.03;5.67;;;;;;;17.78;94.33;100477.67;1745060;82;21097;-70
2022/05/31 09:11:37;;;;;;;10.03;5.58;;;;;;;17.63;94.45;100475.94;1732964;82;21041;-71
2022/05/31 09:14:16;;;;;;;11.97;5.10;;;;;;;17.47;94.99;100480.48;1715177;83;21870;-70
2022/05/31 09:16:51;;;;;;;6.58;5.87;;;;;;;17.34;95.28;100479.02;1715156;83;21030;-70
2022/05/31 09:19:30;;;;;;;7.50;5.22;;;;;;;17.23;95.05;100485.00;1715236;83;21056;-70
2022/05/31 09:21:56;;;;;;;7.17;5.83;;;;;;;17.14;95.69;100478.89;1715361;83;21126;-71
2022/05/31 09:24:22;;;;;;;6.22;5.62;;;;;;;17.07;95.97;100476.17;1717381;82;21088;-71
2022/05/31 09:27:06;;;;;;;9.45;5.85;;;;;;;17.01;95.44;100470.75;1717886;83;22136;-70
2022/05/31 09:30:06;;;;;;;7.97;5.60;;;;;;;16.89;96.35;100463.02;1717610;83;21068;-69
2022/05/31 09:32:44;;;;;;;6.60;5.67;;;;;;;16.81;98.71;100461.26;1718373;83;21107;-72
2022/05/31 09:35:34;;;;;;;11.10;5.85;;;;;;;16.72;100.00;100463.08;1717938;83;21089;-72
2022/05/31 09:38:31;;;;;;;7.95;5.90;;;;;;;16.55;100.00;100455.59;1717228;83;21231;-71
2022/05/31 09:41:32;;;;;;;8.40;5.90;;;;;;;16.43;100.00;100452.31;1717652;83;21121;-72
2022/05/31 09:44:25;;;;;;;8.03;6.17;;;;;;;16.34;100.00;100448.84;1717690;83;21025;-71
2022/05/31 09:47:21;;;;;;;11.33;6.30;;;;;;;16.29;100.00;100454.89;1650899;83;21078;-70
2022/05/31 09:49:50;;;;;;;10.25;5.92;;;;;;;16.18;100.00;100471.89;1716886;83;21138;-71
2022/05/31 09:52:42;;;;;;;9.40;5.53;;;;;;;16.07;100.00;100489.27;1717725;83;21667;-70
2022/05/31 09:58:31;;;;;;;8.35;5.90;;;;;;;15.89;100.00;100484.94;1717572;83;21569;-71
2022/05/31 10:01:22;;;;;;;6.67;5.80;;;;;;;15.79;100.00;100490.37;1664189;83;21057;-71
2022/05/31 10:03:55;;;;;;;6.35;5.60;;;;;;;15.71;100.00;100492.08;1691378;83;21045;-71
2022/05/31 10:06:26;;;;;;;7.50;5.78;;;;;;;15.60;100.00;100487.32;1691492;83;21112;-72
2022/05/31 10:08:54;;;;;;;7.35;5.85;;;;;;;15.52;100.00;100493.48;1718140;83;21505;-71
2022/05/31 10:11:34;;;;;;;9.73;6.05;;;;;;;15.46;100.00;100500.42;1727027;82;21006;-72
2022/05/31 10:14:06;;;;;;;7.67;5.28;;;;;;;15.39;100.00;100503.00;1747526;82;21077;-72
2022/05/31 10:16:34;;;;;;;9.30;6.10;;;;;;;15.30;100.00;100502.55;1747558;82;21096;-72
2022/05/31 10:19:05;;;;;;;11.28;6.20;;;;;;;15.23;100.00;100493.19;1747487;81;21553;-72
2022/05/31 10:21:38;;;;;;;10.55;5.50;;;;;;;15.16;100.00;100485.59;1747896;82;21194;-73
2022/05/31 10:24:24;;;;;;;7.83;5.92;;;;;;;15.07;100.00;100482.97;1745958;81;21398;-72
2022/05/31 10:27:16;;;;;;;10.65;5.65;;;;;;;14.95;100.00;100483.55;1692689;82;21562;-71
2022/05/31 10:30:00;;;;;;;7.58;6.10;;;;;;;14.83;100.00;100477.06;1744750;82;21101;-74
2022/05/31 10:32:51;;;;;;;8.68;6.10;;;;;;;14.70;100.00;100474.17;1745184;82;21076;-72
2022/05/31 10:35:36;;;;;;;9.58;6.92;;;;;;;14.61;100.00;100470.64;1744930;82;21123;-72
2022/05/31 10:38:26;;;;;;;12.75;6.65;;;;;;;14.55;100.00;100473.11;1744569;82;21033;-72
2022/05/31 10:41:00;;;;;;;16.37;6.60;;;;;;;14.54;100.00;100466.51;1723321;82;21045;-72
2022/05/31 10:43:52;;;;;;;9.65;6.85;;;;;;;14.52;100.00;100468.41;1744785;82;21078;-71
2022/05/31 10:46:26;;;;;;;10.00;7.20;;;;;;;14.52;100.00;100467.08;1745022;82;21053;-71
2022/05/31 10:49:12;;;;;;;13.30;7.25;;;;;;;14.53;100.00;100469.63;1744026;82;21142;-71
2022/05/31 10:51:53;;;;;;;16.65;7.45;;;;;;;14.53;100.00;100464.81;1744950;82;21027;-71
2022/05/31 10:54:28;;;;;;;10.17;6.20;;;;;;;14.56;100.00;100471.31;1745565;82;21033;-72
2022/05/31 10:57:39;;;;;;;8.98;5.42;;;;;;;14.60;100.00;100488.79;1744825;82;21081;-72
2022/05/31 11:00:22;;;;;;;9.85;6.80;;;;;;;14.68;100.00;100499.89;1728585;82;21053;-73
2022/05/31 11:03:24;;;;;;;7.37;6.17;;;;;;;14.80;100.00;100501.94;1744926;82;21390;-72
2022/05/31 11:06:10;;;;;;;8.55;6.58;;;;;;;14.94;100.00;100500.41;1745047;82;21050;-73
2022/05/31 11:12:05;;;;;;;8.63;6.60;;;;;;;15.21;100.00;100475.16;1744920;82;21090;-71
2022/05/31 11:15:14;;;;;;;10.45;7.30;;;;;;;15.31;100.00;100474.22;1744983;82;21034;-71
2022/05/31 11:17:59;;;;;;;10.35;7.30;;;;;;;15.44;100.00;100474.46;1744731;82;21316;-71
2022/05/31 11:20:31;;;;;;;8.00;6.45;;;;;;;15.63;100.00;100477.86;1744793;82;21045;-71
2022/05/31 11:23:12;;;;;;;11.25;6.80;;;;;;;15.94;100.00;100480.23;1724184;82;21577;-70
2022/05/31 11:25:56;;;;;;;13.45;6.92;;;;;;;16.30;100.00;100485.83;1744836;82;21628;-70
2022/05/31 11:29:04;;;;;;;11.50;6.33;;;;;;;16.86;100.00;100474.29;1745201;82;21677;-71
2022/05/31 11:32:00;;;;;;;10.28;6.10;;;;;;;17.43;100.00;100470.95;1738187;82;21135;-71
2022/05/31 11:35:15;;;;;;;9.48;5.12;;;;;;;17.96;100.00;100466.36;1745082;82;21073;-70
2022/05/31 11:38:21;;;;;;;6.62;4.12;;;;;;;18.28;100.00;100479.95;1744858;82;21050;-72
2022/05/31 11:41:22;;;;;;;6.37;4.40;;;;;;;18.47;100.00;100473.80;1744263;82;21093;-71
2022/05/31 11:44:20;;;;;;;5.47;3.98;;;;;;;18.30;100.00;100483.38;1745416;82;21104;-71
2022/05/31 11:46:55;;;;;;;4.08;3.67;;;;;;;18.19;100.00;100480.91;1745147;82;21139;-70
2022/05/31 11:49:44;;;;;;;7.10;4.40;;;;;;;18.19;100.00;100487.56;1744787;82;21596;-70
2022/05/31 11:52:29;;;;;;;9.75;4.28;;;;;;;18.26;100.00;100492.52;1745215;82;21037;-70
2022/05/31 11:55:30;;;;;;;7.17;3.85;;;;;;;18.29;100.00;100497.65;1745003;82;21041;-71
2022/05/31 11:58:24;;;;;;;5.92;4.00;;;;;;;18.28;100.00;100487.95;1745195;82;21117;-71
2022/05/31 12:01:11;;;;;;;8.55;3.85;;;;;;;18.29;100.00;100481.66;1744862;82;21806;-71
2022/05/31 12:03:53;;;;;;;8.63;3.62;;;;;;;18.28;100.00;100474.14;1745163;82;21097;-70
2022/05/31 12:06:49;;;;;;;;;;;;;;;18.24;100.00;100473.95;1747928;82;21050;-71
2022/05/31 12:09:43;;;;;;;5.90;4.00;;;;;;;18.30;100.00;100477.56;1745136;82;20198;-71
2022/05/31 12:12:32;;;;;;;4.25;3.72;;;;;;;18.46;100.00;100478.78;1745163;82;21744;-69
2022/05/31 12:15:30;;;;;;;4.50;4.10;;;;;;;18.76;98.25;100475.08;1745174;82;21150;-70
2022/05/31 12:18:36;;;;;;;7.97;3.70;;;;;;;19.03;98.89;100471.94;1745092;82;21033;-70
2022/05/31 12:21:29;;;;;;;4.67;3.12;;;;;;;19.22;96.06;100474.71;1744229;82;21570;-70
2022/05/31 12:24:07;;;;;;;3.20;2.83;;;;;;;19.37;95.92;100477.68;1745597;80;21577;-70
2022/05/31 12:26:49;;;;;;;4.53;3.25;;;;;;;19.54;92.72;100478.34;1747650;82;21018;-70
2022/05/31 12:29:27;;;;;;;3.50;2.77;;;;;;;19.48;92.51;100487.13;1747779;81;21844;-71
2022/05/31 12:32:31;;;;;;;5.62;3.00;;;;;;;19.51;92.42;100483.41;1747414;82;21104;-71
2022/05/31 12:35:00;;;;;;;5.35;3.08;;;;;;;19.64;90.54;100486.08;1747756;81;21029;-70
2022/05/31 12:37:27;;;;;;;6.70;2.98;;;;;;;19.75;89.25;100485.38;1747759;82;21097;-71
2022/05/31 12:40:19;;;;;;;5.50;3.02;;;;;;;19.73;87.99;100481.46;1696688;82;21026;-72
2022/05/31 12:42:48;;;;;;;6.85;3.50;;;;;;;19.78;87.84;100477.98;1747650;82;21748;-71
2022/05/31 12:45:24;;;;;;;4.10;3.47;;;;;;;19.93;87.25;100476.06;1747766;82;21101;-71
2022/05/31 12:47:54;;;;;;;7.85;3.20;;;;;;;20.04;87.24;100477.98;1745161;82;21084;-71
2022/05/31 12:50:54;;;;;;;10.45;3.75;;;;;;;20.04;87.03;100474.83;1748034;82;21073;-71
2022/05/31 12:53:38;;;;;;;3.92;3.33;;;;;;;20.13;87.72;100466.64;1705607;83;21604;-71
2022/05/31 12:56:07;;;;;;;6.40;3.70;;;;;;;20.19;85.85;100464.84;1712075;83;21156;-70
2022/05/31 12:58:48;;;;;;;4.00;3.17;;;;;;;20.26;85.68;100463.92;1671782;84;21064;-71
2022/05/31 13:01:26;;;;;;;5.35;3.30;;;;;;;20.43;83.05;100460.01;1712324;83;21048;-72
2022/05/31 13:04:08;;;;;;;5.87;2.87;;;;;;;20.66;80.70;100455.22;1682049;85;21040;-71